Time;durP1;ratioP1;P1;durP2;ratioP2;P2;SDS_P1;SDS_P2;PMS_P1;PMS_P2;Temp;Humidity;BMP_temperature;BMP_pressure;BME280_temperature;BME280_humidity;BME280_pressure;Samples;Min_cycle;Max_cycle;Signal;HPM_P1;HPM_P2
2021/09/15 00:00:10;;;;;;;3.95;0.60;;;;;;;10.10;52.68;99054.66;5051454;28;20036;-59
2021/09/15 00:02:36;;;;;;;3.92;0.50;;;;;;;10.12;52.53;99052.69;5052513;28;20240;-57
2021/09/15 00:05:02;;;;;;;4.97;0.75;;;;;;;10.07;52.74;99043.41;5051530;28;20029;-57
2021/09/15 00:07:28;;;;;;;1.02;0.60;;;;;;;10.05;52.55;99052.44;5052133;28;20370;-57
2021/09/15 00:09:53;;;;;;;1.35;0.40;;;;;;;10.01;52.91;99058.19;5052446;28;20040;-60
2021/09/15 00:12:19;;;;;;;2.40;0.65;;;;;;;10.00;53.00;99053.81;5051662;28;20033;-57
2021/09/15 00:14:44;;;;;;;2.67;0.55;;;;;;;9.86;52.91;99025.66;5051849;28;20056;-57
2021/09/15 00:17:10;;;;;;;5.05;0.63;;;;;;;9.98;52.96;99045.09;5052258;28;20037;-57
2021/09/15 00:19:35;;;;;;;1.75;0.52;;;;;;;9.97;53.29;99044.25;5051739;28;20033;-54
2021/09/15 00:22:01;;;;;;;2.10;0.60;;;;;;;10.02;52.91;99050.03;5051980;28;20123;-55
2021/09/15 00:24:27;;;;;;;3.78;0.50;;;;;;;9.95;53.30;99051.56;5052116;28;20476;-53
2021/09/15 00:26:52;;;;;;;4.90;0.60;;;;;;;9.92;53.49;99057.19;5052058;28;20029;-56
2021/09/15 00:29:18;;;;;;;4.20;0.73;;;;;;;9.72;53.44;99025.06;5050773;28;20143;-56
2021/09/15 00:31:43;;;;;;;3.65;0.50;;;;;;;9.90;53.92;99062.69;5051473;28;20037;-55
2021/09/15 00:34:08;;;;;;;1.88;0.50;;;;;;;9.88;53.85;99067.31;5051608;28;20032;-58
2021/09/15 00:36:34;;;;;;;2.47;0.70;;;;;;;9.89;53.95;99062.81;5050549;28;20029;-58
2021/09/15 00:38:59;;;;;;;4.70;0.50;;;;;;;9.89;53.93;99065.50;5051420;28;20098;-55
2021/09/15 00:41:25;;;;;;;4.95;0.70;;;;;;;9.90;54.01;99070.72;5042941;28;20087;-56
2021/09/15 00:44:03;;;;;;;1.55;0.70;;;;;;;9.99;53.65;99065.50;5032120;28;20095;-55
2021/09/15 00:46:30;;;;;;;3.83;0.60;;;;;;;9.89;53.77;99073.50;5032070;28;20040;-57
2021/09/15 00:48:56;;;;;;;3.72;0.50;;;;;;;9.88;53.98;99056.63;5031362;28;20030;-57
2021/09/15 00:51:21;;;;;;;2.25;0.60;;;;;;;9.95;54.03;99072.94;5040195;28;20087;-58
2021/09/15 00:53:47;;;;;;;3.80;0.80;;;;;;;9.90;53.97;99068.03;5051302;28;20037;-60
2021/09/15 00:56:13;;;;;;;3.15;0.32;;;;;;;9.96;54.25;99071.13;5051682;28;20029;-56
2021/09/15 00:58:38;;;;;;;1.80;0.50;;;;;;;9.72;54.21;99037.63;5050550;28;20025;-53
2021/09/15 01:01:04;;;;;;;3.53;0.57;;;;;;;9.94;54.21;99070.44;5051036;28;20035;-58
2021/09/15 01:03:30;;;;;;;0.70;0.52;;;;;;;9.94;54.40;99068.59;5051577;28;20032;-58
2021/09/15 01:05:56;;;;;;;3.63;0.50;;;;;;;10.03;54.30;99077.63;5051783;28;20040;-57
2021/09/15 01:08:23;;;;;;;5.38;0.63;;;;;;;9.88;54.20;99040.56;5050566;28;20020;-58
2021/09/15 01:10:48;;;;;;;4.07;0.60;;;;;;;10.08;54.49;99074.53;5050672;28;20028;-56
2021/09/15 01:13:14;;;;;;;1.17;0.60;;;;;;;10.07;54.18;99072.84;5050705;28;20053;-53
2021/09/15 01:15:40;;;;;;;3.55;0.60;;;;;;;10.06;54.07;99080.00;5051595;28;20041;-57
2021/09/15 01:18:19;;;;;;;3.15;0.63;;;;;;;10.14;53.91;99088.19;5050846;28;20032;-54
2021/09/15 01:20:46;;;;;;;4.78;0.65;;;;;;;10.10;54.30;99081.41;5050751;28;20029;-55
2021/09/15 01:23:12;;;;;;;2.55;0.70;;;;;;;10.13;54.13;99081.16;5050975;28;20025;-57
2021/09/15 01:25:39;;;;;;;2.65;0.85;;;;;;;10.13;54.22;99081.16;5050894;28;20067;-57
2021/09/15 01:28:04;;;;;;;5.30;0.77;;;;;;;10.16;53.95;99083.56;5050998;28;20036;-57
2021/09/15 01:30:30;;;;;;;2.60;0.40;;;;;;;10.13;54.34;99074.94;5050864;28;20037;-55
2021/09/15 01:32:56;;;;;;;5.13;0.60;;;;;;;10.19;54.53;99085.94;5050109;28;20037;-60
2021/09/15 01:35:21;;;;;;;6.72;0.60;;;;;;;10.24;54.30;99088.19;5050542;28;20158;-58
2021/09/15 01:37:47;;;;;;;4.10;0.80;;;;;;;10.19;54.17;99088.63;5050754;28;20036;-56
2021/09/15 01:40:13;;;;;;;7.22;0.70;;;;;;;10.19;54.55;99091.28;5050443;28;20426;-57
2021/09/15 01:42:39;;;;;;;1.48;0.40;;;;;;;10.19;54.50;99093.97;5054926;28;20048;-58
2021/09/15 01:45:06;;;;;;;5.38;0.80;;;;;;;10.23;54.40;99083.81;5053529;28;20040;-58
2021/09/15 01:47:32;;;;;;;2.85;0.60;;;;;;;10.16;54.33;99070.19;5053592;28;20037;-58
2021/09/15 01:49:57;;;;;;;6.30;0.82;;;;;;;10.20;54.87;99087.63;5054402;28;20070;-57
2021/09/15 01:52:23;;;;;;;3.83;0.52;;;;;;;10.10;54.55;99070.72;5054216;28;20028;-57
2021/09/15 01:54:48;;;;;;;4.70;0.70;;;;;;;10.20;54.65;99090.31;5054481;28;20495;-56
2021/09/15 01:57:15;;;;;;;4.10;0.70;;;;;;;10.20;54.66;99090.31;5055021;28;20463;-58
2021/09/15 01:59:40;;;;;;;3.08;0.80;;;;;;;10.11;55.14;99079.59;5054313;28;20056;-53
2021/09/15 02:02:10;;;;;;;3.50;0.70;;;;;;;10.19;55.05;99085.09;5054488;28;20071;-53
2021/09/15 02:04:36;;;;;;;5.82;0.70;;;;;;;10.18;54.94;99089.59;5055184;28;20024;-57
2021/09/15 02:07:02;;;;;;;3.60;0.60;;;;;;;10.18;55.25;99089.59;5054190;28;20025;-55
2021/09/15 02:09:27;;;;;;;4.15;0.70;;;;;;;10.18;55.24;99092.28;5054518;28;20056;-57
2021/09/15 02:11:53;;;;;;;4.68;0.65;;;;;;;10.18;54.90;99099.44;5054560;28;20463;-53
2021/09/15 02:14:19;;;;;;;3.70;0.70;;;;;;;10.11;55.17;99095.66;5054419;28;20049;-54
2021/09/15 02:16:45;;;;;;;3.90;0.50;;;;;;;10.12;55.21;99089.31;5054030;28;20043;-56
2021/09/15 02:19:11;;;;;;;1.50;0.50;;;;;;;10.22;55.28;99105.38;5054318;28;20029;-58
2021/09/15 02:21:37;;;;;;;1.67;0.60;;;;;;;10.16;54.94;99096.94;5054849;28;20029;-54
2021/09/15 02:24:04;;;;;;;5.03;0.95;;;;;;;10.18;55.15;99099.44;5052685;28;20232;-56
2021/09/15 02:26:31;;;;;;;1.00;0.75;;;;;;;10.23;55.37;99099.03;5053755;28;20538;-55
2021/09/15 02:28:58;;;;;;;3.90;0.40;;;;;;;10.21;55.16;99088.47;5054242;28;20037;-55
2021/09/15 02:31:23;;;;;;;2.58;0.70;;;;;;;10.27;55.13;99100.44;5054159;28;20029;-55
2021/09/15 02:33:49;;;;;;;1.73;0.55;;;;;;;10.28;55.31;99108.34;5052776;28;20032;-57
2021/09/15 02:36:14;;;;;;;2.20;0.50;;;;;;;10.27;55.27;99109.31;5053231;28;20112;-55
2021/09/15 02:38:40;;;;;;;3.22;0.93;;;;;;;10.28;55.27;99111.03;5054025;28;20029;-59
2021/09/15 02:41:06;;;;;;;4.07;0.68;;;;;;;10.29;55.13;99109.16;5054431;28;20024;-58
2021/09/15 02:43:32;;;;;;;2.75;0.60;;;;;;;10.22;55.48;99100.03;5052946;28;20294;-58
2021/09/15 02:45:57;;;;;;;5.82;0.70;;;;;;;10.31;55.24;99120.56;5053538;28;20028;-56
2021/09/15 02:48:22;;;;;;;1.42;0.60;;;;;;;10.31;55.20;99116.09;5053700;28;20029;-57
2021/09/15 02:50:48;;;;;;;3.33;0.80;;;;;;;10.27;55.53;99116.50;5054051;28;20422;-60
2021/09/15 02:53:13;;;;;;;2.17;0.63;;;;;;;10.31;55.68;99121.44;5052479;28;20040;-56
2021/09/15 02:55:39;;;;;;;5.80;0.70;;;;;;;10.32;55.77;99122.25;5053642;28;20482;-57
2021/09/15 02:58:06;;;;;;;4.88;0.82;;;;;;;10.33;55.51;99119.47;5053674;28;20475;-57
2021/09/15 03:00:31;;;;;;;2.90;0.70;;;;;;;10.34;55.72;99125.66;5053819;28;20243;-56
2021/09/15 03:02:57;;;;;;;4.00;0.70;;;;;;;10.36;55.82;99123.66;5053460;28;20147;-57
2021/09/15 03:05:23;;;;;;;5.45;0.60;;;;;;;10.18;55.54;99094.09;5053038;28;20036;-52
2021/09/15 03:07:48;;;;;;;3.60;0.73;;;;;;;10.38;55.67;99132.44;5052824;28;20220;-57
2021/09/15 03:10:14;;;;;;;4.90;0.80;;;;;;;10.37;55.59;99130.75;5053835;28;20029;-57
2021/09/15 03:12:39;;;;;;;7.85;0.88;;;;;;;10.39;55.66;99139.47;5053639;28;20021;-54
2021/09/15 03:15:05;;;;;;;3.85;1.00;;;;;;;10.32;55.70;99125.81;5052663;28;20055;-54
2021/09/15 03:17:31;;;;;;;9.40;1.00;;;;;;;10.39;55.64;99128.78;5053284;28;20032;-57
2021/09/15 03:19:56;;;;;;;4.88;0.73;;;;;;;10.41;55.94;99128.66;5053645;28;20465;-53
2021/09/15 03:22:22;;;;;;;3.92;0.70;;;;;;;10.44;55.73;99136.38;5052768;28;20119;-58
2021/09/15 03:24:47;;;;;;;3.78;0.68;;;;;;;10.43;55.43;99138.22;5051946;28;20175;-56
2021/09/15 03:27:13;;;;;;;2.08;0.80;;;;;;;10.43;55.64;99130.22;5052633;28;20035;-55
2021/09/15 03:29:38;;;;;;;5.65;0.70;;;;;;;10.43;55.64;99140.06;5052608;28;20040;-58
2021/09/15 03:32:04;;;;;;;2.00;0.50;;;;;;;10.45;55.79;99141.63;5052710;28;20036;-54
2021/09/15 03:34:29;;;;;;;5.00;0.60;;;;;;;10.48;55.55;99140.47;5052485;28;20033;-54
2021/09/15 03:36:55;;;;;;;4.78;0.68;;;;;;;10.50;55.83;99135.84;5052796;28;20389;-57
2021/09/15 03:39:21;;;;;;;3.70;0.70;;;;;;;10.46;55.47;99140.63;5052827;28;20385;-56
2021/09/15 03:41:47;;;;;;;4.15;0.70;;;;;;;10.46;55.53;99142.44;5051799;28;20079;-57
2021/09/15 03:44:13;;;;;;;4.03;0.50;;;;;;;10.46;55.83;99140.63;5052932;28;20091;-59
2021/09/15 03:46:38;;;;;;;1.02;0.60;;;;;;;10.45;56.00;99146.97;5052620;28;20028;-56
2021/09/15 03:49:04;;;;;;;1.67;0.80;;;;;;;10.50;55.77;99151.06;5052598;28;20452;-57
2021/09/15 03:51:31;;;;;;;1.05;0.70;;;;;;;10.42;56.08;99151.75;5052192;28;20033;-57
2021/09/15 03:53:57;;;;;;;5.05;0.70;;;;;;;10.45;55.84;99157.66;5051664;28;20116;-52
2021/09/15 03:56:23;;;;;;;5.95;0.73;;;;;;;10.44;55.83;99147.09;5051885;28;20485;-56
2021/09/15 03:58:48;;;;;;;2.40;0.65;;;;;;;10.48;55.76;99165.41;5052509;28;20025;-59
2021/09/15 04:01:14;;;;;;;4.70;0.90;;;;;;;10.47;56.08;99162.88;5052530;28;20035;-55
2021/09/15 04:03:40;;;;;;;0.80;0.60;;;;;;;10.47;56.05;99162.88;5051324;28;20059;-56
2021/09/15 04:06:06;;;;;;;1.88;0.60;;;;;;;10.50;56.08;99169.78;5051568;28;20468;-57
2021/09/15 04:08:31;;;;;;;2.70;0.80;;;;;;;10.48;56.21;99178.81;5052291;28;20021;-53
2021/09/15 04:10:57;;;;;;;4.13;0.90;;;;;;;10.51;56.17;99168.81;5051397;28;20085;-57
2021/09/15 04:13:22;;;;;;;3.03;0.50;;;;;;;10.53;55.90;99172.19;5051470;28;20473;-54
2021/09/15 04:15:48;;;;;;;5.35;0.68;;;;;;;10.51;56.19;99147.38;5052316;28;20107;-55
2021/09/15 04:18:13;;;;;;;2.22;0.80;;;;;;;10.60;56.02;99170.63;5052106;28;20028;-54
2021/09/15 04:20:40;;;;;;;4.13;0.88;;;;;;;10.56;56.24;99177.25;5051723;28;20028;-56
2021/09/15 04:23:28;;;;;;;1.27;0.80;;;;;;;10.56;56.11;99177.25;5050658;28;20061;-57
2021/09/15 04:31:26;;;;;;;1.75;0.93;;;;;;;10.59;56.04;99180.50;5049799;28;20456;-56
2021/09/15 04:33:53;;;;;;;4.82;1.00;;;;;;;10.69;56.09;99183.19;5050589;28;20086;-57
2021/09/15 04:36:19;;;;;;;6.93;1.67;;;;;;;10.69;55.42;99169.81;5051637;28;20033;-58
2021/09/15 04:38:45;;;;;;;4.10;0.90;;;;;;;10.79;55.65;99182.31;5051942;28;20441;-59
2021/09/15 04:41:11;;;;;;;2.20;0.80;;;;;;;10.73;55.63;99176.56;5051196;28;20047;-53
2021/09/15 04:43:37;;;;;;;2.65;0.80;;;;;;;10.73;56.03;99192.63;5051462;28;20024;-55
2021/09/15 04:46:03;;;;;;;2.72;0.70;;;;;;;10.75;55.81;99187.97;5051433;28;20043;-56
2021/09/15 04:48:28;;;;;;;2.25;0.70;;;;;;;10.81;55.60;99191.06;5050958;28;20370;-57
2021/09/15 04:50:54;;;;;;;4.38;0.90;;;;;;;10.88;55.49;99194.88;5050956;28;20021;-56
2021/09/15 04:53:21;;;;;;;2.58;0.80;;;;;;;10.87;55.18;99185.16;5051263;28;20033;-57
2021/09/15 04:55:47;;;;;;;1.77;0.90;;;;;;;10.88;54.86;99189.53;5051810;28;20025;-54
2021/09/15 04:58:12;;;;;;;4.60;0.80;;;;;;;10.89;55.23;99199.25;5051249;28;20107;-55
2021/09/15 05:00:38;;;;;;;0.80;0.60;;;;;;;10.90;55.19;99212.50;5050989;28;20132;-54
2021/09/15 05:03:03;;;;;;;1.92;0.70;;;;;;;10.87;55.23;99210.09;5051238;28;20021;-54
2021/09/15 05:05:29;;;;;;;3.00;1.27;;;;;;;10.87;55.41;99211.94;5050183;28;20025;-54
2021/09/15 05:07:54;;;;;;;2.80;0.82;;;;;;;10.93;55.05;99210.50;5051053;28;20178;-53
2021/09/15 05:10:26;;;;;;;1.67;0.77;;;;;;;10.96;55.37;99218.25;5050973;28;20503;-53
2021/09/15 05:12:56;;;;;;;2.22;1.00;;;;;;;10.95;55.09;99224.59;5050606;28;20083;-57
2021/09/15 05:15:24;;;;;;;6.28;0.80;;;;;;;10.89;55.34;99221.50;5033134;28;20033;-58
2021/09/15 05:17:51;;;;;;;4.40;2.30;;;;;;;10.85;55.79;99229.97;5050661;28;20029;-60
2021/09/15 05:20:18;;;;;;;3.60;0.90;;;;;;;10.83;55.60;99223.91;5050623;28;20032;-56
2021/09/15 05:22:47;;;;;;;2.83;0.80;;;;;;;10.86;56.01;99227.16;5050843;28;20095;-56
2021/09/15 05:25:13;;;;;;;0.80;0.60;;;;;;;10.83;55.96;99227.44;5050504;28;20108;-56
2021/09/15 05:27:40;;;;;;;3.72;0.93;;;;;;;10.87;55.96;99236.06;5050553;28;20040;-59
2021/09/15 05:30:06;;;;;;;3.92;1.20;;;;;;;10.90;56.32;99233.91;5049982;28;20029;-56
2021/09/15 05:32:33;;;;;;;2.88;0.70;;;;;;;10.93;56.87;99230.13;5050584;28;20029;-56
2021/09/15 05:34:58;;;;;;;3.05;0.65;;;;;;;11.06;56.74;99232.50;5050724;28;20078;-56
2021/09/15 05:37:24;;;;;;;0.80;0.75;;;;;;;11.24;55.77;99229.94;5050521;28;20529;-57
2021/09/15 05:39:49;;;;;;;1.88;0.70;;;;;;;11.46;55.77;99239.53;5051168;28;20025;-60
2021/09/15 05:42:15;;;;;;;1.58;0.65;;;;;;;11.65;54.75;99237.78;5038805;28;20034;-57
2021/09/15 05:44:40;;;;;;;2.25;0.70;;;;;;;11.57;54.64;99225.09;5031107;28;20394;-56
2021/09/15 05:47:06;;;;;;;3.65;0.93;;;;;;;11.49;54.73;99215.09;5031301;28;20390;-56
2021/09/15 05:49:31;;;;;;;2.13;0.73;;;;;;;11.75;54.34;99249.34;5031096;28;20035;-59
2021/09/15 05:51:57;;;;;;;2.35;0.60;;;;;;;11.82;54.21;99244.22;5030834;28;20034;-57
2021/09/15 05:54:22;;;;;;;0.82;0.60;;;;;;;11.76;54.31;99240.28;5030822;28;20083;-57
2021/09/15 05:56:48;;;;;;;0.60;0.50;;;;;;;11.76;54.17;99236.75;5031472;28;20026;-61
2021/09/15 05:59:14;;;;;;;3.58;0.63;;;;;;;11.88;54.14;99248.16;5035270;28;20114;-59
2021/09/15 06:01:40;;;;;;;6.75;0.50;;;;;;;11.96;53.76;99253.63;5046228;28;20134;-58
2021/09/15 06:04:06;;;;;;;0.70;0.50;;;;;;;12.03;53.53;99248.53;5050850;28;20121;-59
2021/09/15 06:06:31;;;;;;;2.70;0.55;;;;;;;12.13;53.11;99257.41;5050556;28;20100;-57
2021/09/15 06:08:57;;;;;;;1.85;0.77;;;;;;;12.03;53.47;99265.50;5050560;28;20078;-59
2021/09/15 06:11:22;;;;;;;2.65;0.70;;;;;;;11.95;53.89;99260.00;5051217;28;20108;-55
2021/09/15 06:13:49;;;;;;;0.73;0.50;;;;;;;11.90;54.11;99268.47;5050806;28;20139;-57
2021/09/15 06:16:16;;;;;;;8.90;0.93;;;;;;;11.83;54.21;99275.44;5050351;28;20110;-56
2021/09/15 06:18:41;;;;;;;1.73;0.63;;;;;;;11.83;54.43;99279.94;5050386;28;20124;-56
2021/09/15 06:21:07;;;;;;;3.83;0.90;;;;;;;11.79;54.59;99282.03;5049574;28;20059;-60
2021/09/15 06:23:33;;;;;;;2.78;0.60;;;;;;;11.75;54.77;99264.56;5048469;28;20115;-59
2021/09/15 06:26:00;;;;;;;0.68;0.60;;;;;;;11.82;55.11;99281.78;5046637;28;20025;-61
2021/09/15 06:28:26;;;;;;;4.32;0.60;;;;;;;11.89;54.81;99274.84;5054086;28;20025;-58
2021/09/15 06:30:52;;;;;;;1.05;0.45;;;;;;;11.92;54.46;99263.81;5053334;28;20584;-59
2021/09/15 06:33:17;;;;;;;2.38;0.52;;;;;;;11.99;53.76;99265.91;5054302;28;20137;-59
2021/09/15 06:35:43;;;;;;;2.40;0.68;;;;;;;12.03;53.51;99278.06;5054410;28;20037;-59
2021/09/15 06:38:12;;;;;;;2.22;0.60;;;;;;;12.11;53.23;99280.00;5054174;28;20040;-59
2021/09/15 06:40:39;;;;;;;2.03;0.50;;;;;;;12.09;53.16;99282.00;5054490;28;20083;-59
2021/09/15 06:43:04;;;;;;;0.80;0.52;;;;;;;12.00;53.35;99284.53;5053550;28;20039;-62
2021/09/15 06:45:30;;;;;;;2.75;0.60;;;;;;;11.97;53.48;99276.78;5052365;28;20037;-58
2021/09/15 06:47:55;;;;;;;0.77;0.70;;;;;;;12.02;53.44;99277.22;5053813;28;20067;-60
2021/09/15 06:50:21;;;;;;;2.08;0.50;;;;;;;11.98;53.25;99258.84;5054608;28;20041;-59
2021/09/15 06:52:46;;;;;;;2.80;0.50;;;;;;;12.23;52.67;99283.34;5053868;28;20491;-59
2021/09/15 06:55:12;;;;;;;2.88;0.55;;;;;;;12.34;52.91;99285.84;5053710;28;20503;-57
2021/09/15 06:57:38;;;;;;;7.03;0.70;;;;;;;12.49;52.57;99295.09;5052870;28;20040;-58
2021/09/15 07:00:05;;;;;;;1.13;0.63;;;;;;;12.56;52.41;99298.03;5053723;28;20087;-57
2021/09/15 07:02:31;;;;;;;1.10;0.60;;;;;;;12.54;52.46;99291.09;5053831;28;20021;-62
2021/09/15 07:04:58;;;;;;;3.58;0.90;;;;;;;12.47;53.04;99299.75;5053344;28;20332;-61
2021/09/15 07:07:23;;;;;;;1.20;0.68;;;;;;;12.36;53.02;99294.59;5049441;28;20029;-57
2021/09/15 07:09:48;;;;;;;0.98;0.60;;;;;;;12.24;53.76;99293.09;5035237;28;20037;-59
2021/09/15 07:12:14;;;;;;;2.33;0.68;;;;;;;12.27;53.81;99296.34;5042947;28;20025;-57
2021/09/15 07:14:39;;;;;;;1.98;0.50;;;;;;;12.29;53.53;99285.44;5043018;28;20098;-57
2021/09/15 07:17:06;;;;;;;5.85;0.80;;;;;;;12.38;53.61;99292.59;5033352;28;20064;-56
2021/09/15 07:19:31;;;;;;;5.15;0.50;;;;;;;12.51;52.84;99280.66;5033212;28;20025;-56
2021/09/15 07:21:56;;;;;;;7.40;0.75;;;;;;;12.70;52.32;99280.56;5039744;28;20024;-58
2021/09/15 07:24:22;;;;;;;2.55;0.80;;;;;;;12.91;51.57;99282.97;5041454;28;20042;-59
2021/09/15 07:26:47;;;;;;;2.15;0.68;;;;;;;13.06;50.89;99288.66;5043399;28;20457;-57
2021/09/15 07:29:13;;;;;;;2.55;0.65;;;;;;;13.13;50.91;99290.72;5048880;28;20094;-58
2021/09/15 07:31:38;;;;;;;2.33;0.65;;;;;;;13.17;50.35;99298.34;5052673;28;20033;-58
2021/09/15 07:34:05;;;;;;;5.07;0.90;;;;;;;13.19;50.42;99298.16;5046606;28;20025;-59
2021/09/15 07:36:31;;;;;;;3.55;0.82;;;;;;;13.19;50.31;99303.53;5034604;28;20470;-62
2021/09/15 07:38:57;;;;;;;1.05;0.50;;;;;;;13.19;49.92;99312.47;5045048;28;20043;-59
2021/09/15 07:41:23;;;;;;;1.13;0.60;;;;;;;13.09;50.00;99310.84;5041849;28;20021;-58
2021/09/15 07:43:48;;;;;;;2.00;0.80;;;;;;;12.95;49.86;99315.75;5052139;28;20443;-57
2021/09/15 07:46:14;;;;;;;2.15;0.70;;;;;;;12.82;50.16;99313.41;5051348;28;20033;-59
2021/09/15 07:48:40;;;;;;;2.47;0.70;;;;;;;12.70;50.36;99322.69;5052255;28;20033;-58
2021/09/15 07:51:05;;;;;;;2.72;0.80;;;;;;;12.52;50.60;99317.25;5053291;28;20041;-58
2021/09/15 07:53:31;;;;;;;0.85;0.65;;;;;;;12.34;51.17;99312.69;5052867;28;20504;-58
2021/09/15 07:55:56;;;;;;;0.82;0.57;;;;;;;12.30;50.81;99322.03;5041984;28;20021;-57
2021/09/15 07:58:23;;;;;;;1.55;0.60;;;;;;;12.28;50.44;99315.94;5032937;28;20090;-57
2021/09/15 08:00:48;;;;;;;2.67;0.80;;;;;;;12.09;50.56;99296.28;5032736;28;20385;-57
2021/09/15 08:03:14;;;;;;;0.93;0.43;;;;;;;12.22;50.06;99314.72;5032429;28;20090;-58
2021/09/15 08:05:40;;;;;;;2.35;0.60;;;;;;;12.38;50.23;99327.50;5032508;28;20022;-59
2021/09/15 08:08:05;;;;;;;1.30;0.60;;;;;;;12.45;50.42;99333.97;5032855;28;20029;-58
2021/09/15 08:10:31;;;;;;;2.83;0.60;;;;;;;12.52;49.77;99328.00;5032533;28;20025;-55
2021/09/15 08:12:57;;;;;;;5.50;0.88;;;;;;;12.64;49.35;99330.34;5032454;28;20022;-58
2021/09/15 08:15:22;;;;;;;1.25;0.65;;;;;;;12.79;48.57;99332.53;5033022;28;20499;-60
2021/09/15 08:17:51;;;;;;;1.92;0.60;;;;;;;12.95;48.36;99341.78;5032722;28;20049;-60
2021/09/15 08:20:16;;;;;;;3.33;0.50;;;;;;;13.00;48.21;99334.09;5032253;28;20461;-58
2021/09/15 08:22:42;;;;;;;4.47;0.85;;;;;;;13.07;48.18;99335.19;5032002;28;20032;-57
2021/09/15 08:25:08;;;;;;;1.92;0.52;;;;;;;13.15;47.88;99339.78;5032581;28;20068;-58
2021/09/15 08:27:33;;;;;;;3.40;0.73;;;;;;;13.18;47.34;99342.16;5032427;28;20048;-56
2021/09/15 08:29:59;;;;;;;2.25;0.60;;;;;;;13.26;47.65;99346.78;5031974;28;20048;-58
2021/09/15 08:32:24;;;;;;;7.00;0.85;;;;;;;13.23;46.98;99349.78;5032226;28;20109;-57
2021/09/15 08:34:50;;;;;;;4.53;0.80;;;;;;;12.96;47.45;99313.91;5030740;28;20378;-59
2021/09/15 08:37:15;;;;;;;1.70;0.80;;;;;;;13.16;47.16;99354.91;5032385;28;20491;-57
2021/09/15 08:39:41;;;;;;;2.45;0.88;;;;;;;13.07;47.64;99362.91;5031964;28;20105;-55
2021/09/15 08:42:06;;;;;;;2.00;0.70;;;;;;;13.03;48.34;99353.47;5031955;28;20029;-56
2021/09/15 08:44:32;;;;;;;3.28;1.00;;;;;;;12.91;47.85;99358.19;5032269;28;20072;-60
2021/09/15 08:46:59;;;;;;;2.65;0.70;;;;;;;12.89;47.95;99370.91;5032416;28;20079;-55
2021/09/15 08:49:26;;;;;;;4.53;0.70;;;;;;;12.74;48.27;99345.56;5031976;28;20462;-57
2021/09/15 08:51:52;;;;;;;1.33;0.70;;;;;;;12.76;48.39;99371.28;5031045;28;20029;-55
2021/09/15 08:54:18;;;;;;;0.73;0.68;;;;;;;12.80;48.48;99376.38;5031682;28;20040;-54
2021/09/15 08:56:43;;;;;;;2.83;0.63;;;;;;;12.83;48.21;99376.06;5031921;28;20037;-57
2021/09/15 08:59:09;;;;;;;2.38;0.80;;;;;;;12.87;48.32;99382.81;5031853;28;20032;-58
2021/09/15 09:01:34;;;;;;;2.35;0.70;;;;;;;12.92;48.01;99376.00;5031495;28;20478;-58
2021/09/15 09:04:00;;;;;;;1.77;0.70;;;;;;;12.96;48.16;99384.59;5030468;28;20036;-58
2021/09/15 09:06:30;;;;;;;0.80;0.60;;;;;;;12.96;47.57;99379.22;5032061;28;20029;-57
2021/09/15 09:08:57;;;;;;;4.43;0.93;;;;;;;12.83;47.93;99384.13;5031246;28;20034;-59
2021/09/15 09:11:25;;;;;;;1.10;0.70;;;;;;;12.88;48.06;99400.63;5031484;28;20025;-59
2021/09/15 09:13:56;;;;;;;1.05;0.73;;;;;;;12.92;48.28;99408.25;5030847;28;20075;-57
2021/09/15 09:16:36;;;;;;;1.67;0.90;;;;;;;12.88;48.21;99401.47;5031457;28;20041;-58
2021/09/15 09:19:05;;;;;;;3.67;0.65;;;;;;;12.88;47.86;99406.84;5031427;28;20412;-64
2021/09/15 09:21:33;;;;;;;2.85;0.63;;;;;;;12.89;48.28;99399.63;5031171;28;20465;-60
2021/09/15 09:24:10;;;;;;;1.52;0.88;;;;;;;12.86;47.48;99400.78;5031369;28;20028;-58
2021/09/15 09:26:49;;;;;;;2.72;0.77;;;;;;;13.03;48.18;99412.59;5028956;28;20120;-55
2021/09/15 09:29:35;;;;;;;1.52;0.70;;;;;;;13.00;47.06;99394.03;5029055;28;20516;-60
2021/09/15 09:32:10;;;;;;;3.10;0.70;;;;;;;13.27;46.93;99411.16;5029093;28;20029;-61
2021/09/15 09:34:44;;;;;;;2.33;0.70;;;;;;;13.48;46.49;99402.84;5028780;28;20544;-60
2021/09/15 09:37:18;;;;;;;2.45;1.10;;;;;;;13.88;45.26;99400.66;5029033;28;20552;-61
2021/09/15 09:39:46;;;;;;;3.80;0.70;;;;;;;14.32;43.80;99407.03;5029823;28;20049;-58
2021/09/15 09:42:24;;;;;;;1.27;0.82;;;;;;;14.78;43.49;99399.56;5030968;28;20036;-60
2021/09/15 09:44:52;;;;;;;1.95;0.82;;;;;;;14.95;42.13;99396.94;5031505;28;20094;-60
2021/09/15 09:47:21;;;;;;;1.88;0.88;;;;;;;15.05;41.34;99372.50;5031222;28;20454;-60
2021/09/15 09:50:10;;;;;;;2.83;0.75;;;;;;;15.58;41.67;99405.50;5029779;28;20045;-61
2021/09/15 09:52:59;;;;;;;1.48;0.57;;;;;;;15.83;40.46;99405.50;5031110;28;20056;-58
2021/09/15 09:55:30;;;;;;;3.30;0.55;;;;;;;15.69;40.34;99401.63;5031122;28;20124;-61
2021/09/15 09:57:56;;;;;;;2.15;0.70;;;;;;;15.73;39.83;99405.69;5031218;28;20038;-60
2021/09/15 10:00:23;;;;;;;0.90;0.65;;;;;;;15.67;40.10;99409.06;5029224;28;20079;-62
2021/09/15 10:02:49;;;;;;;1.88;1.02;;;;;;;15.51;39.88;99404.50;5034042;28;20025;-57
2021/09/15 10:05:17;;;;;;;1.48;0.60;;;;;;;15.42;40.30;99410.88;5034904;28;20040;-61
2021/09/15 10:07:44;;;;;;;1.10;0.70;;;;;;;15.21;40.43;99387.91;5034567;28;20044;-61
2021/09/15 10:10:12;;;;;;;2.42;0.65;;;;;;;15.39;39.95;99413.91;5034919;28;20033;-57
2021/09/15 10:12:38;;;;;;;0.88;0.70;;;;;;;15.57;39.47;99424.56;5034561;28;20120;-59
2021/09/15 10:15:08;;;;;;;1.67;0.70;;;;;;;15.82;39.32;99419.19;5034411;28;20191;-59
2021/09/15 10:17:36;;;;;;;2.20;0.90;;;;;;;16.00;38.91;99409.09;5033122;28;20072;-61
2021/09/15 10:20:06;;;;;;;1.15;0.70;;;;;;;16.05;38.41;99397.78;5035097;28;20049;-57
2021/09/15 10:22:43;;;;;;;1.65;0.70;;;;;;;16.17;38.43;99404.53;5035262;28;20021;-60
2021/09/15 10:25:09;;;;;;;2.10;0.65;;;;;;;16.30;37.33;99408.56;5034355;28;20460;-60
2021/09/15 10:27:56;;;;;;;0.90;0.80;;;;;;;16.45;37.88;99409.53;5034929;28;20041;-58
2021/09/15 10:30:22;;;;;;;6.30;0.90;;;;;;;16.29;36.65;99412.28;5035007;28;20059;-61
2021/09/15 10:32:50;;;;;;;2.67;0.65;;;;;;;16.29;36.67;99417.66;5034965;28;20065;-58
2021/09/15 10:35:46;;;;;;;3.17;0.60;;;;;;;16.47;37.61;99426.44;5034456;28;20034;-53
2021/09/15 10:38:12;;;;;;;0.82;0.70;;;;;;;16.30;36.92;99422.06;5033958;28;20112;-58
2021/09/15 10:40:39;;;;;;;2.58;0.73;;;;;;;16.18;37.13;99424.28;5034410;28;20037;-60
2021/09/15 10:43:25;;;;;;;1.83;0.77;;;;;;;16.14;37.31;99421.06;5035006;28;20030;-59
2021/09/15 10:46:21;;;;;;;2.92;0.60;;;;;;;16.35;37.65;99427.78;5033915;28;20120;-61
2021/09/15 10:49:15;;;;;;;2.10;1.00;;;;;;;16.28;37.54;99438.47;5034079;28;20029;-60
2021/09/15 10:51:40;;;;;;;2.78;0.73;;;;;;;16.11;36.85;99434.91;5034486;28;20029;-61
2021/09/15 10:54:49;;;;;;;1.48;0.60;;;;;;;16.39;37.67;99417.50;5034300;28;20047;-59
2021/09/15 10:57:21;;;;;;;1.02;0.60;;;;;;;16.38;36.68;99437.41;5034023;28;20108;-62
2021/09/15 10:59:58;;;;;;;3.38;0.73;;;;;;;16.44;36.94;99443.00;5032721;28;20037;-57
2021/09/15 11:02:50;;;;;;;0.95;0.52;;;;;;;16.41;36.88;99435.22;5053531;28;20384;-60
2021/09/15 11:05:27;;;;;;;1.52;0.73;;;;;;;16.25;37.30;99432.53;5052985;28;20106;-61
2021/09/15 11:07:59;;;;;;;1.10;0.80;;;;;;;15.97;37.09;99430.19;5053274;28;20033;-58
2021/09/15 11:10:33;;;;;;;1.50;0.63;;;;;;;15.90;38.05;99436.25;5053256;28;20056;-60
2021/09/15 11:12:59;;;;;;;1.67;0.95;;;;;;;15.84;37.83;99441.47;5051769;28;20400;-59
2021/09/15 11:15:30;;;;;;;1.52;0.70;;;;;;;15.75;37.92;99437.91;5053204;28;20509;-59
2021/09/15 11:17:56;;;;;;;3.33;0.60;;;;;;;15.78;37.70;99442.97;5053548;28;20429;-61
2021/09/15 11:20:27;;;;;;;1.10;0.60;;;;;;;15.98;37.57;99442.69;5052784;28;20492;-61
2021/09/15 11:22:54;;;;;;;4.30;0.60;;;;;;;16.18;36.69;99432.38;5052867;28;20104;-61
2021/09/15 11:25:22;;;;;;;1.85;0.60;;;;;;;16.40;36.26;99443.50;5052543;28;20119;-59
2021/09/15 11:28:06;;;;;;;3.53;0.60;;;;;;;16.70;36.67;99447.31;5053138;28;20033;-57
2021/09/15 11:30:33;;;;;;;1.95;0.68;;;;;;;16.52;35.50;99428.63;5052920;28;20152;-60
2021/09/15 11:32:59;;;;;;;2.30;0.57;;;;;;;16.48;35.16;99422.72;5053386;28;20032;-62
2021/09/15 11:35:24;;;;;;;1.00;0.60;;;;;;;16.48;34.77;99438.06;5053101;28;20040;-58
2021/09/15 11:37:50;;;;;;;0.43;0.40;;;;;;;16.42;35.23;99425.25;5053065;28;20068;-60
2021/09/15 11:40:16;;;;;;;1.05;0.60;;;;;;;16.55;35.32;99430.13;5051974;28;20104;-61